Time;durP1;ratioP1;P1;durP2;ratioP2;P2;SDS_P1;SDS_P2;PMS_P1;PMS_P2;Temp;Humidity;BMP_temperature;BMP_pressure;BME280_temperature;BME280_humidity;BME280_pressure;Samples;Min_cycle;Max_cycle;Signal;HPM_P1;HPM_P2
2024/02/15 00:01:08;;;;;;;40.58;16.40;;;;;;;7.74;100.00;98709.47;6108264;19;20003;-74
2024/02/15 00:03:13;;;;;;;28.88;13.68;;;;;;;7.73;100.00;98709.84;6108610;19;20036;-74
2024/02/15 00:05:15;;;;;;;18.30;8.82;;;;;;;7.76;100.00;98720.13;6107954;19;20069;-74
2024/02/15 00:07:16;;;;;;;8.68;4.63;;;;;;;7.77;100.00;98713.47;6109363;19;20006;-74
2024/02/15 00:09:16;;;;;;;5.22;3.10;;;;;;;7.79;100.00;98714.75;6106909;19;20102;-74
2024/02/15 00:11:17;;;;;;;5.15;2.65;;;;;;;7.83;100.00;98714.81;6106553;19;20332;-74
2024/02/15 00:13:17;;;;;;;4.55;2.40;;;;;;;7.83;100.00;98715.63;6108582;19;20455;-74
2024/02/15 00:15:19;;;;;;;3.53;2.22;;;;;;;7.87;100.00;98718.47;6107162;19;19998;-74
2024/02/15 00:17:19;;;;;;;2.17;1.70;;;;;;;7.89;100.00;98724.44;6108501;19;19999;-74
2024/02/15 00:19:21;;;;;;;2.42;1.80;;;;;;;7.89;100.00;98718.91;6113067;19;20066;-74
2024/02/15 00:21:22;;;;;;;2.45;1.67;;;;;;;7.94;100.00;98720.59;6113129;19;20010;-74
2024/02/15 00:23:23;;;;;;;2.45;1.60;;;;;;;7.95;100.00;98713.97;6112401;19;20020;-74
2024/02/15 00:25:25;;;;;;;2.30;1.30;;;;;;;8.02;100.00;98712.16;6112754;19;20652;-74
2024/02/15 00:27:26;;;;;;;2.70;1.60;;;;;;;8.05;100.00;98713.41;6112773;19;20003;-74
2024/02/15 00:29:28;;;;;;;1.42;1.30;;;;;;;8.03;100.00;98708.28;6112510;19;20064;-74
2024/02/15 00:31:28;;;;;;;1.75;1.40;;;;;;;8.04;100.00;98714.59;6113647;19;20066;-74
2024/02/15 00:33:29;;;;;;;1.92;1.40;;;;;;;8.06;100.00;98717.78;6111828;19;20002;-74
2024/02/15 00:35:29;;;;;;;3.78;1.50;;;;;;;8.07;100.00;98713.84;6113062;19;20258;-74
2024/02/15 00:37:29;;;;;;;1.50;1.38;;;;;;;8.09;100.00;98719.81;6113195;19;20016;-74
2024/02/15 00:39:31;;;;;;;2.13;1.15;;;;;;;8.07;100.00;98722.94;6110917;19;20007;-74
2024/02/15 00:41:33;;;;;;;1.50;1.17;;;;;;;8.07;100.00;98722.13;6111004;19;20038;-74
2024/02/15 00:43:37;;;;;;;1.80;1.48;;;;;;;8.08;100.00;98723.72;6113395;19;20014;-74
2024/02/15 00:45:37;;;;;;;1.98;1.30;;;;;;;8.08;100.00;98726.47;6112108;19;20010;-74
2024/02/15 00:47:38;;;;;;;1.50;1.30;;;;;;;8.09;100.00;98717.06;6112927;19;20011;-74
2024/02/15 00:49:38;;;;;;;1.30;1.20;;;;;;;8.15;100.00;98721.16;6111844;19;20325;-74
2024/02/15 00:51:38;;;;;;;1.40;1.20;;;;;;;8.17;100.00;98716.06;6112748;19;20013;-74
2024/02/15 00:53:40;;;;;;;1.38;1.00;;;;;;;8.16;100.00;98715.28;6113166;19;20066;-74
2024/02/15 00:55:40;;;;;;;1.00;0.90;;;;;;;8.18;100.00;98715.72;6112315;19;20461;-74
2024/02/15 00:57:40;;;;;;;1.10;1.00;;;;;;;8.24;100.00;98718.22;6112501;19;20007;-74
2024/02/15 00:59:41;;;;;;;1.45;0.90;;;;;;;8.22;100.00;98721.31;6111277;19;20030;-74
2024/02/15 01:01:41;;;;;;;1.02;0.90;;;;;;;8.22;100.00;98715.81;6112003;19;20036;-74
2024/02/15 01:03:41;;;;;;;1.05;0.95;;;;;;;8.20;100.00;98709.88;6112672;19;20014;-74
2024/02/15 01:05:42;;;;;;;2.17;1.05;;;;;;;8.20;100.00;98715.38;6112297;19;20621;-74
2024/02/15 01:07:42;;;;;;;1.33;1.10;;;;;;;8.20;100.00;98717.34;6112160;19;20003;-74
2024/02/15 01:09:42;;;;;;;1.83;1.52;;;;;;;8.17;100.00;98711.34;6110627;19;20378;-74
2024/02/15 01:11:43;;;;;;;1.70;0.90;;;;;;;8.18;100.00;98710.19;6113038;19;20402;-74
2024/02/15 01:13:46;;;;;;;1.15;0.98;;;;;;;8.20;100.00;98715.38;6112332;19;20487;-74
2024/02/15 01:15:47;;;;;;;1.20;1.00;;;;;;;8.18;100.00;98712.97;6111743;19;20089;-74
2024/02/15 01:17:48;;;;;;;2.67;1.10;;;;;;;8.17;100.00;98710.56;6111872;19;20010;-74
2024/02/15 01:19:48;;;;;;;1.08;0.98;;;;;;;8.16;100.00;98711.72;6111745;19;20005;-74
2024/02/15 01:21:48;;;;;;;1.45;0.80;;;;;;;8.13;100.00;98704.97;6111708;19;20086;-74
2024/02/15 01:23:49;;;;;;;0.77;0.77;;;;;;;8.13;100.00;98707.72;6111061;19;20349;-74
2024/02/15 01:25:50;;;;;;;1.58;1.10;;;;;;;8.11;100.00;98700.97;6112008;19;20011;-74
2024/02/15 01:27:50;;;;;;;1.05;0.90;;;;;;;8.15;100.00;98702.66;6111016;19;20010;-74
2024/02/15 01:29:51;;;;;;;0.80;0.80;;;;;;;8.18;100.00;98707.44;6111201;19;20034;-74
2024/02/15 01:31:52;;;;;;;1.80;0.80;;;;;;;8.17;100.00;98710.56;6112089;19;20176;-74
2024/02/15 01:33:52;;;;;;;3.55;0.90;;;;;;;8.18;100.00;98704.69;6111912;19;20014;-74
2024/02/15 01:35:53;;;;;;;2.55;0.90;;;;;;;8.18;100.00;98704.69;6111191;19;20006;-74
2024/02/15 01:37:54;;;;;;;1.15;0.93;;;;;;;8.16;100.00;98708.97;6110533;19;20086;-74
2024/02/15 01:39:54;;;;;;;0.88;0.82;;;;;;;8.16;100.00;98714.47;6111920;19;20911;-74
2024/02/15 01:41:56;;;;;;;1.60;1.00;;;;;;;8.25;100.00;98712.34;6111672;19;20010;-74
2024/02/15 01:43:56;;;;;;;0.80;0.80;;;;;;;8.30;100.00;98706.56;6110990;19;19999;-74
2024/02/15 01:45:59;;;;;;;0.88;0.80;;;;;;;8.36;100.00;98707.94;6111014;19;20726;-74
2024/02/15 01:47:59;;;;;;;;;;;;;;;8.43;100.00;98704.50;6111983;19;20032;-74
2024/02/15 01:49:59;;;;;;;1.00;0.90;;;;;;;8.43;100.00;98693.50;6110093;19;19910;-74
2024/02/15 01:52:02;;;;;;;1.13;1.00;;;;;;;8.46;100.00;98705.78;6111242;19;20029;-74
2024/02/15 01:54:03;;;;;;;2.22;1.38;;;;;;;8.48;100.00;98704.25;6110806;19;20303;-74
2024/02/15 01:56:04;;;;;;;1.15;1.00;;;;;;;8.46;100.00;98709.34;6110590;19;20336;-74
2024/02/15 01:58:05;;;;;;;2.05;1.00;;;;;;;8.44;100.00;98706.13;6110622;19;20546;-74
2024/02/15 02:00:08;;;;;;;1.40;1.10;;;;;;;8.44;100.00;98709.69;6110967;19;19994;-74
2024/02/15 02:02:12;;;;;;;1.35;1.08;;;;;;;8.39;100.00;98701.69;6111574;19;20006;-74
2024/02/15 02:04:13;;;;;;;1.60;1.30;;;;;;;8.39;100.00;98707.19;6111029;19;19995;-74
2024/02/15 02:06:14;;;;;;;1.42;1.33;;;;;;;8.38;100.00;98708.38;6110047;19;20010;-74
2024/02/15 02:08:15;;;;;;;2.00;1.40;;;;;;;8.40;100.00;98706.03;6108803;19;19999;-74
2024/02/15 02:10:15;;;;;;;2.30;1.70;;;;;;;8.47;100.00;98691.63;6110677;19;20696;-74
2024/02/15 02:12:17;;;;;;;2.17;1.58;;;;;;;8.49;100.00;98697.56;6109243;19;20088;-74
2024/02/15 02:14:20;;;;;;;2.08;1.42;;;;;;;8.47;100.00;98691.63;6108061;19;20010;-74
2024/02/15 02:16:35;;;;;;;3.03;1.60;;;;;;;8.47;100.00;98691.63;6107129;19;20002;-74
2024/02/15 02:18:35;;;;;;;1.88;1.35;;;;;;;8.47;100.00;98697.13;6110021;19;20011;-74
2024/02/15 02:20:36;;;;;;;1.40;1.30;;;;;;;8.49;100.00;98696.78;6110238;19;20372;-74
2024/02/15 02:22:36;;;;;;;2.20;1.52;;;;;;;8.51;100.00;98694.44;6109334;19;20098;-74
2024/02/15 02:25:05;;;;;;;2.40;1.50;;;;;;;8.50;100.00;98695.63;6110795;19;20031;-74
2024/02/15 02:27:07;;;;;;;1.92;1.63;;;;;;;8.52;100.00;98691.34;6111174;19;20399;-75
2024/02/15 02:29:08;;;;;;;2.28;1.50;;;;;;;8.55;100.00;98698.09;6109969;19;19995;-74
2024/02/15 02:31:11;;;;;;;2.13;1.40;;;;;;;8.55;100.00;98695.34;6110097;19;20099;-74
2024/02/15 02:33:22;;;;;;;2.22;1.50;;;;;;;8.55;100.00;98698.09;6111022;19;20411;-74
2024/02/15 02:35:22;;;;;;;2.20;2.00;;;;;;;8.59;100.00;98693.47;6110380;19;20058;-74
2024/02/15 02:37:24;;;;;;;5.82;2.15;;;;;;;8.58;100.00;98695.41;6110802;19;20467;-75
2024/02/15 02:39:25;;;;;;;1.53;1.43;;;;;;;8.55;100.00;98690.63;6110231;19;20006;-74
2024/02/15 02:41:25;;;;;;;4.45;1.85;;;;;;;8.53;100.00;98689.41;6106922;19;20418;-75
2024/02/15 02:43:26;;;;;;;1.98;1.60;;;;;;;8.49;100.00;98688.50;6107387;19;20013;-74
2024/02/15 02:45:26;;;;;;;3.08;2.25;;;;;;;8.57;100.00;98693.03;6110478;19;20007;-74
2024/02/15 02:47:26;;;;;;;2.20;1.77;;;;;;;8.56;100.00;98689.47;6109898;19;20006;-74
2024/02/15 02:49:27;;;;;;;3.58;1.65;;;;;;;8.56;100.00;98700.50;6108681;19;20011;-75
2024/02/15 02:51:27;;;;;;;3.90;2.78;;;;;;;8.54;100.00;98688.25;6109681;19;20002;-74
2024/02/15 02:53:28;;;;;;;1.92;1.52;;;;;;;8.51;100.00;98680.66;6108554;19;20500;-75
2024/02/15 02:55:29;;;;;;;3.20;2.35;;;;;;;8.52;100.00;98682.25;6109816;19;20002;-74
2024/02/15 02:57:31;;;;;;;2.33;1.85;;;;;;;8.53;100.00;98684.69;6110301;19;20491;-74
2024/02/15 02:59:34;;;;;;;2.70;2.17;;;;;;;8.56;100.00;98683.16;6109200;19;20032;-74
2024/02/15 03:01:34;;;;;;;2.75;2.28;;;;;;;8.58;100.00;98686.34;6110227;19;20007;-74
2024/02/15 03:03:35;;;;;;;2.72;2.10;;;;;;;8.61;100.00;98689.19;6108535;19;20094;-74
2024/02/15 03:05:35;;;;;;;2.88;2.10;;;;;;;8.61;100.00;98691.97;6107589;19;20002;-74
2024/02/15 03:07:36;;;;;;;4.07;2.33;;;;;;;8.64;100.00;98688.47;6110099;19;20007;-74
2024/02/15 03:09:37;;;;;;;3.40;2.35;;;;;;;8.68;100.00;98699.56;6108060;19;20013;-74
2024/02/15 03:11:37;;;;;;;4.38;2.60;;;;;;;8.70;100.00;98689.78;6109760;19;20344;-74
2024/02/15 03:13:38;;;;;;;3.95;2.30;;;;;;;8.71;100.00;98696.91;6110331;19;20014;-74
2024/02/15 03:15:38;;;;;;;3.45;2.70;;;;;;;8.72;100.00;98689.44;6102887;19;20312;-74
2024/02/15 03:17:46;;;;;;;4.10;2.80;;;;;;;8.80;100.00;98698.66;6101015;19;20034;-74
2024/02/15 03:19:48;;;;;;;3.47;2.50;;;;;;;8.84;100.00;98705.84;6099047;19;20593;-74
2024/02/15 03:21:49;;;;;;;;;;;;;;;8.88;100.00;98703.19;6101687;19;20368;-74
2024/02/15 03:23:49;;;;;;;3.08;2.50;;;;;;;8.86;100.00;98694.47;6099903;19;19919;-74
2024/02/15 03:25:49;;;;;;;4.93;2.40;;;;;;;8.82;100.00;98697.13;6100968;19;20010;-74
2024/02/15 03:27:55;;;;;;;3.92;2.55;;;;;;;8.81;100.00;98701.06;6100612;19;20007;-74
2024/02/15 03:29:57;;;;;;;2.90;2.33;;;;;;;8.82;100.00;98705.41;6100975;19;20010;-74
2024/02/15 03:31:57;;;;;;;4.15;2.55;;;;;;;8.82;100.00;98694.38;6101408;19;20470;-74
2024/02/15 03:33:59;;;;;;;3.40;2.60;;;;;;;8.78;100.00;98692.72;6100066;19;20015;-74
2024/02/15 03:36:00;;;;;;;5.38;2.95;;;;;;;8.74;100.00;98692.63;6100258;19;19998;-74
2024/02/15 03:38:01;;;;;;;4.10;2.50;;;;;;;8.86;100.00;98694.47;6099490;19;20002;-74
2024/02/15 03:40:01;;;;;;;3.20;2.70;;;;;;;8.83;100.00;98698.72;6100292;19;20598;-73
2024/02/15 03:42:01;;;;;;;3.83;2.55;;;;;;;8.83;100.00;98690.44;6100757;19;20017;-73
2024/02/15 03:44:02;;;;;;;4.25;2.75;;;;;;;8.84;100.00;98696.78;6099396;19;19999;-74
2024/02/15 03:46:02;;;;;;;3.88;2.78;;;;;;;8.85;100.00;98692.84;6099075;19;19991;-74
2024/02/15 03:48:05;;;;;;;4.25;3.00;;;;;;;8.84;100.00;98692.03;6098950;19;20491;-74
2024/02/15 03:50:06;;;;;;;;;;;;;;;8.84;100.00;98694.00;6100312;19;20518;-74
2024/02/15 03:52:06;;;;;;;4.10;2.80;;;;;;;8.77;100.00;98680.88;6097480;19;19915;-75
2024/02/15 03:54:06;;;;;;;7.65;3.25;;;;;;;8.80;100.00;98684.88;6100672;19;20658;-74
2024/02/15 03:56:08;;;;;;;3.65;2.92;;;;;;;8.78;100.00;98699.03;6099239;19;20007;-74
2024/02/15 03:58:09;;;;;;;4.37;2.83;;;;;;;8.77;100.00;98691.91;6099351;19;20066;-74
2024/02/15 04:00:11;;;;;;;4.63;2.90;;;;;;;8.78;100.00;98704.56;6100247;19;20334;-74
2024/02/15 04:02:14;;;;;;;4.30;3.23;;;;;;;8.75;100.00;98708.00;6100536;19;20066;-74
2024/02/15 04:04:14;;;;;;;4.88;3.22;;;;;;;8.73;100.00;98700.09;6099678;19;20246;-74
2024/02/15 04:06:15;;;;;;;16.00;3.47;;;;;;;8.76;100.00;98708.81;6099935;19;19999;-74
2024/02/15 04:08:16;;;;;;;7.07;3.40;;;;;;;8.76;100.00;98709.59;6098435;19;20006;-74
2024/02/15 04:10:18;;;;;;;4.70;3.17;;;;;;;8.79;100.00;98703.38;6100548;19;19998;-74
2024/02/15 04:12:18;;;;;;;5.13;3.10;;;;;;;8.80;100.00;98709.69;6099639;19;20010;-74
2024/02/15 04:14:19;;;;;;;6.07;3.35;;;;;;;8.81;100.00;98705.78;6098675;19;20259;-74
2024/02/15 04:16:19;;;;;;;5.40;3.00;;;;;;;8.82;100.00;98696.34;6108288;19;20372;-74
2024/02/15 04:18:20;;;;;;;5.18;3.15;;;;;;;8.78;100.00;98701.78;6105628;19;20016;-74
2024/02/15 04:20:21;;;;;;;6.43;4.15;;;;;;;8.81;100.00;98703.81;6107213;19;20044;-74
2024/02/15 04:22:21;;;;;;;6.50;3.33;;;;;;;8.82;100.00;98701.84;6107608;19;20041;-74
2024/02/15 04:24:22;;;;;;;5.40;2.92;;;;;;;8.81;100.00;98709.34;6107169;19;20066;-75
2024/02/15 04:26:26;;;;;;;4.70;3.03;;;;;;;8.79;100.00;98702.59;6107364;19;20543;-74
2024/02/15 04:28:27;;;;;;;4.95;2.85;;;;;;;8.77;100.00;98707.63;6107204;19;20386;-74
2024/02/15 04:30:27;;;;;;;4.32;2.85;;;;;;;8.75;100.00;98704.44;6107168;19;20350;-74
2024/02/15 04:32:28;;;;;;;3.47;2.95;;;;;;;8.71;100.00;98704.38;6106943;19;20010;-74
2024/02/15 04:34:30;;;;;;;3.88;2.45;;;;;;;8.68;100.00;98707.84;6107286;19;20007;-74
2024/02/15 04:36:33;;;;;;;4.90;2.80;;;;;;;8.65;100.00;98705.81;6107089;19;20025;-74
2024/02/15 04:38:34;;;;;;;4.53;3.10;;;;;;;8.60;100.00;98708.84;6106683;19;20477;-74
2024/02/15 04:40:35;;;;;;;4.97;3.00;;;;;;;8.55;100.00;98706.38;6107061;19;20010;-74
2024/02/15 04:42:39;;;;;;;4.40;2.55;;;;;;;8.52;100.00;98704.31;6107083;19;20036;-74
2024/02/15 04:44:40;;;;;;;3.65;2.60;;;;;;;8.46;100.00;98698.31;6106771;19;20010;-74
2024/02/15 04:46:41;;;;;;;8.02;4.97;;;;;;;8.41;100.00;98701.31;6107026;19;20002;-74
2024/02/15 04:48:42;;;;;;;8.48;5.47;;;;;;;8.37;100.00;98704.00;6106655;19;20038;-74
2024/02/15 04:50:43;;;;;;;6.35;5.15;;;;;;;8.37;100.00;98698.50;6106729;19;20007;-74
2024/02/15 04:52:45;;;;;;;6.95;4.38;;;;;;;8.38;100.00;98693.78;6106635;19;20325;-74
2024/02/15 04:54:45;;;;;;;5.25;3.80;;;;;;;8.38;100.00;98699.28;6107191;19;20010;-75
2024/02/15 04:56:46;;;;;;;5.35;4.00;;;;;;;8.40;100.00;98702.47;6107074;19;20042;-74
2024/02/15 04:58:47;;;;;;;6.07;4.88;;;;;;;8.38;100.00;98707.56;6105871;19;20524;-74
2024/02/15 05:00:52;;;;;;;6.68;3.75;;;;;;;8.35;100.00;98700.00;6106601;19;20011;-74
2024/02/15 05:02:53;;;;;;;5.47;4.13;;;;;;;8.36;100.00;98705.16;6106260;19;20024;-75
2024/02/15 05:04:56;;;;;;;8.50;3.75;;;;;;;8.36;100.00;98696.09;6111376;19;20455;-74
2024/02/15 05:06:56;;;;;;;4.57;3.20;;;;;;;8.35;100.00;98706.31;6113026;19;20010;-74
2024/02/15 05:08:57;;;;;;;5.55;3.80;;;;;;;8.34;100.00;98710.19;6110965;19;20370;-74
2024/02/15 05:10:58;;;;;;;4.50;3.00;;;;;;;8.35;100.00;98703.53;6112066;19;20478;-74
2024/02/15 05:13:01;;;;;;;2.75;2.25;;;;;;;8.42;100.00;98705.69;6112338;19;20021;-74
2024/02/15 05:15:01;;;;;;;4.32;2.60;;;;;;;8.47;100.00;98715.66;6112562;19;20010;-74
2024/02/15 05:17:02;;;;;;;3.70;2.67;;;;;;;8.51;100.00;98706.28;6112335;19;20317;-74
2024/02/15 05:19:02;;;;;;;5.75;2.65;;;;;;;8.52;100.00;98707.88;6113025;19;20011;-74
2024/02/15 05:21:04;;;;;;;3.08;2.50;;;;;;;8.52;100.00;98710.63;6113139;19;20010;-74
2024/02/15 05:23:04;;;;;;;3.75;2.45;;;;;;;8.59;100.00;98708.03;6112489;19;20030;-74
2024/02/15 05:25:07;;;;;;;3.78;2.42;;;;;;;8.68;100.00;98722.44;6112868;19;20356;-74
2024/02/15 05:27:08;;;;;;;3.33;2.67;;;;;;;8.69;100.00;98717.75;6113393;19;20015;-74
2024/02/15 05:29:12;;;;;;;3.67;2.35;;;;;;;8.67;100.00;98717.28;6111961;19;20462;-74
2024/02/15 05:31:19;;;;;;;3.30;2.28;;;;;;;8.67;100.00;98717.28;6111467;19;20034;-74
2024/02/15 05:33:21;;;;;;;5.85;2.80;;;;;;;8.67;100.00;98720.03;6112348;19;20010;-74
2024/02/15 05:35:21;;;;;;;4.90;2.50;;;;;;;8.66;100.00;98715.69;6111825;19;20002;-74
2024/02/15 05:37:23;;;;;;;3.35;2.38;;;;;;;8.65;100.00;98719.59;6113487;19;20752;-75
2024/02/15 05:39:23;;;;;;;3.50;2.40;;;;;;;8.67;100.00;98720.84;6111850;19;20022;-74
2024/02/15 05:41:24;;;;;;;5.05;3.85;;;;;;;8.69;100.00;98721.31;6112455;19;20251;-74
2024/02/15 05:43:25;;;;;;;4.63;3.20;;;;;;;8.71;100.00;98718.97;6111317;19;20250;-74
2024/02/15 05:45:25;;;;;;;4.63;3.38;;;;;;;8.73;100.00;98724.13;6110891;19;20530;-75
2024/02/15 05:47:25;;;;;;;3.25;2.35;;;;;;;8.72;100.00;98715.06;6111290;19;20002;-74
2024/02/15 05:49:26;;;;;;;3.83;2.47;;;;;;;8.69;100.00;98709.47;6110208;19;20002;-74
2024/02/15 05:51:27;;;;;;;3.65;2.92;;;;;;;8.72;100.00;98714.25;6111829;19;20005;-74
2024/02/15 05:53:28;;;;;;;3.35;2.30;;;;;;;8.75;100.00;98712.72;6110803;19;20347;-74
2024/02/15 05:55:31;;;;;;;3.20;2.35;;;;;;;8.74;100.00;98711.94;6110643;19;20002;-74
2024/02/15 05:57:32;;;;;;;5.45;2.53;;;;;;;8.73;100.00;98707.56;6111153;19;20614;-74
2024/02/15 05:59:33;;;;;;;3.80;2.08;;;;;;;8.70;100.00;98711.88;6110456;19;20405;-74
2024/02/15 06:01:34;;;;;;;3.65;2.28;;;;;;;8.76;100.00;98706.06;6110557;19;20454;-74
2024/02/15 06:03:37;;;;;;;2.70;2.20;;;;;;;8.77;100.00;98708.47;6110234;19;19998;-74
2024/02/15 06:05:38;;;;;;;4.10;2.28;;;;;;;8.78;100.00;98715.59;6111369;19;20471;-74
2024/02/15 06:07:39;;;;;;;4.05;2.60;;;;;;;8.77;100.00;98707.63;6110840;19;20003;-74
2024/02/15 06:09:40;;;;;;;5.70;2.15;;;;;;;8.80;100.00;98710.50;6109863;19;20250;-74
2024/02/15 06:11:40;;;;;;;3.90;2.53;;;;;;;8.82;100.00;98716.44;6110738;19;20020;-74
2024/02/15 06:13:41;;;;;;;3.50;2.28;;;;;;;8.83;100.00;98701.50;6110140;19;20007;-74
2024/02/15 06:15:41;;;;;;;3.65;2.50;;;;;;;8.88;100.00;98711.47;6107495;19;20171;-74
2024/02/15 06:17:44;;;;;;;5.43;2.85;;;;;;;8.94;100.00;98710.03;6110376;19;20014;-74
2024/02/15 06:19:45;;;;;;;3.63;2.42;;;;;;;8.94;100.00;98710.03;6109293;19;20031;-74
2024/02/15 06:21:46;;;;;;;7.72;3.13;;;;;;;8.95;100.00;98720.69;6110289;19;20074;-74
2024/02/15 06:23:48;;;;;;;3.28;2.28;;;;;;;8.96;100.00;98721.50;6110384;19;20010;-74
2024/02/15 06:25:52;;;;;;;3.20;2.30;;;;;;;8.96;100.00;98719.53;6110287;19;20522;-74
2024/02/15 06:27:58;;;;;;;3.22;2.00;;;;;;;8.96;100.00;98715.97;6108930;19;20002;-74
2024/02/15 06:41:34;;;;;;;4.22;2.35;;;;;;;8.98;100.00;98728.22;6107192;19;20072;-74
2024/02/15 06:43:35;;;;;;;2.75;1.88;;;;;;;8.98;100.00;98744.00;6109831;19;20015;-74
2024/02/15 06:45:37;;;;;;;1.88;1.50;;;;;;;8.96;100.00;98738.03;6109952;19;20018;-74
2024/02/15 06:47:37;;;;;;;2.23;1.77;;;;;;;8.96;100.00;98743.56;6110004;19;20010;-74
2024/02/15 06:49:42;;;;;;;2.53;1.95;;;;;;;8.96;100.00;98740.81;6107445;19;20326;-74
2024/02/15 06:51:43;;;;;;;3.78;1.80;;;;;;;8.95;100.00;98740.00;6110181;19;20002;-75
2024/02/15 06:53:43;;;;;;;2.55;1.65;;;;;;;8.91;100.00;98739.13;6110498;19;20006;-74
2024/02/15 06:55:44;;;;;;;3.72;1.90;;;;;;;8.90;100.00;98745.00;6108763;19;20592;-75
2024/02/15 06:57:45;;;;;;;3.30;1.83;;;;;;;8.86;100.00;98742.16;6108718;19;20007;-75
2024/02/15 06:59:46;;;;;;;4.68;1.88;;;;;;;8.92;100.00;98749.00;6108923;19;20018;-74
2024/02/15 07:01:47;;;;;;;4.10;2.20;;;;;;;8.95;100.00;98740.00;6109321;19;20813;-74
2024/02/15 07:03:47;;;;;;;3.65;2.50;;;;;;;9.01;100.00;98743.25;6109246;19;20007;-74
2024/02/15 07:05:48;;;;;;;2.20;1.50;;;;;;;9.01;100.00;98744.06;6109715;19;20002;-74
2024/02/15 07:07:49;;;;;;;3.55;1.73;;;;;;;9.08;100.00;98740.66;6108256;19;20381;-75
2024/02/15 07:09:50;;;;;;;2.40;1.83;;;;;;;9.14;100.00;98738.44;6108219;19;20320;-75
2024/02/15 07:11:51;;;;;;;2.35;1.80;;;;;;;9.14;100.00;98741.97;6108835;19;20045;-74
2024/02/15 07:13:54;;;;;;;3.38;1.52;;;;;;;9.18;100.00;98742.03;6108967;19;20565;-74
2024/02/15 07:15:54;;;;;;;2.88;1.83;;;;;;;9.18;100.00;98742.84;6097601;19;20463;-75
2024/02/15 07:17:55;;;;;;;2.03;1.58;;;;;;;9.20;100.00;98740.53;6108046;19;20044;-74
2024/02/15 07:19:55;;;;;;;2.17;1.40;;;;;;;9.19;100.00;98740.91;6108673;19;20082;-75
2024/02/15 07:21:56;;;;;;;2.65;1.85;;;;;;;9.19;100.00;98740.91;6108016;19;20329;-74
2024/02/15 07:23:58;;;;;;;2.42;1.90;;;;;;;9.22;100.00;98732.69;6107783;19;20471;-75
2024/02/15 07:25:59;;;;;;;2.80;1.70;;;;;;;9.22;100.00;98737.41;6108620;19;20007;-75
2024/02/15 07:27:59;;;;;;;2.15;1.80;;;;;;;9.22;100.00;98735.44;6107552;19;20014;-75
2024/02/15 07:29:59;;;;;;;2.75;1.75;;;;;;;9.24;100.00;98738.63;6107706;19;20014;-74
2024/02/15 07:32:04;;;;;;;2.53;1.73;;;;;;;9.33;100.00;98726.59;6107281;19;20005;-75
2024/02/15 07:34:04;;;;;;;2.50;1.75;;;;;;;9.37;100.00;98733.00;6106253;19;20027;-74
2024/02/15 07:36:05;;;;;;;3.42;1.67;;;;;;;9.44;100.00;98720.13;6107294;19;20546;-74
2024/02/15 07:38:06;;;;;;;2.75;1.67;;;;;;;9.51;100.00;98730.50;6106964;19;19999;-74
2024/02/15 07:40:08;;;;;;;3.00;1.60;;;;;;;9.53;100.00;98731.75;6107884;19;20470;-74
2024/02/15 07:42:08;;;;;;;2.60;1.80;;;;;;;9.52;100.00;98732.13;6105372;19;19999;-75
2024/02/15 07:44:09;;;;;;;2.05;1.48;;;;;;;9.52;100.00;98737.63;6108260;19;20082;-75
2024/02/15 07:46:13;;;;;;;2.30;1.50;;;;;;;9.54;100.00;98740.84;6107898;19;20006;-74
2024/02/15 07:48:13;;;;;;;1.95;1.40;;;;;;;9.58;100.00;98739.72;6107598;19;20027;-75
2024/02/15 07:50:20;;;;;;;2.65;1.60;;;;;;;9.62;100.00;98742.56;6108946;19;20006;-74
2024/02/15 07:52:20;;;;;;;2.80;1.50;;;;;;;9.67;100.00;98752.50;6106742;19;20006;-75
2024/02/15 07:54:23;;;;;;;1.55;1.33;;;;;;;9.66;100.00;98750.91;6109199;19;20340;-74
2024/02/15 07:56:23;;;;;;;2.13;1.80;;;;;;;9.69;100.00;98756.53;6107740;19;20023;-75
2024/02/15 07:58:23;;;;;;;2.75;1.83;;;;;;;9.69;100.00;98748.22;6106507;19;20002;-75
2024/02/15 08:00:26;;;;;;;2.38;1.90;;;;;;;9.75;100.00;98746.75;6108046;19;20006;-75
2024/02/15 08:02:28;;;;;;;2.67;1.67;;;;;;;9.78;100.00;98748.81;6108179;19;20374;-74
2024/02/15 08:04:28;;;;;;;3.58;1.60;;;;;;;9.83;100.00;98742.94;6108027;19;20406;-74
2024/02/15 08:06:31;;;;;;;2.38;1.80;;;;;;;9.87;100.00;98742.25;6108833;19;20022;-74
2024/02/15 08:08:37;;;;;;;2.78;1.80;;;;;;;9.89;100.00;98737.94;6107305;19;20430;-75
2024/02/15 08:10:39;;;;;;;2.38;1.90;;;;;;;9.91;100.00;98732.03;6106040;19;20007;-74
2024/02/15 08:12:41;;;;;;;3.25;2.00;;;;;;;9.90;100.00;98736.75;6108893;19;20007;-74
2024/02/15 08:14:42;;;;;;;5.78;2.80;;;;;;;9.97;100.00;98736.09;6104506;19;20009;-74
2024/02/15 08:16:43;;;;;;;3.05;2.42;;;;;;;10.00;100.00;98735.34;6099969;19;20437;-75
2024/02/15 08:18:43;;;;;;;4.93;3.17;;;;;;;10.01;100.00;98723.94;6098733;19;20317;-74
2024/02/15 08:20:45;;;;;;;5.47;3.40;;;;;;;10.06;100.00;98725.59;6098790;19;20003;-75
2024/02/15 08:22:45;;;;;;;5.10;3.35;;;;;;;10.08;100.00;98723.25;6099639;19;20648;-75
2024/02/15 08:24:47;;;;;;;3.50;2.88;;;;;;;10.17;100.00;98720.25;6098613;19;20083;-75
2024/02/15 08:26:47;;;;;;;5.97;2.65;;;;;;;10.24;100.00;98720.41;6099684;19;20227;-75
2024/02/15 08:28:48;;;;;;;3.88;2.90;;;;;;;10.29;100.00;98707.06;6098848;19;20344;-74
2024/02/15 08:30:48;;;;;;;3.58;2.58;;;;;;;10.42;100.00;98707.66;6099071;19;20033;-75
2024/02/15 08:32:48;;;;;;;2.92;2.40;;;;;;;10.45;100.00;98706.94;6099469;19;20319;-75
2024/02/15 08:34:50;;;;;;;5.20;2.67;;;;;;;10.52;100.00;98714.53;6099890;19;19998;-75
2024/02/15 08:36:51;;;;;;;3.47;2.58;;;;;;;10.54;100.00;98710.22;6099241;19;20013;-75
2024/02/15 08:38:52;;;;;;;4.18;2.72;;;;;;;10.55;100.00;98702.72;6100430;19;20497;-75
2024/02/15 08:40:52;;;;;;;4.57;2.63;;;;;;;10.60;100.00;98707.94;6105529;19;20015;-75
2024/02/15 08:42:52;;;;;;;3.28;1.88;;;;;;;10.60;100.00;98708.75;6104699;19;19999;-75
2024/02/15 08:44:53;;;;;;;2.92;1.95;;;;;;;10.62;100.00;98711.94;6104836;19;20009;-74
2024/02/15 08:46:53;;;;;;;3.38;2.60;;;;;;;10.63;100.00;98721.81;6105869;19;20031;-75
2024/02/15 08:48:53;;;;;;;3.72;2.10;;;;;;;10.60;100.00;98719.00;6103680;19;20002;-75
2024/02/15 08:50:54;;;;;;;8.55;2.25;;;;;;;10.63;100.00;98724.59;6104423;19;20046;-75
2024/02/15 08:52:55;;;;;;;3.58;2.08;;;;;;;10.62;100.00;98723.00;6105314;19;20027;-75
2024/02/15 08:54:57;;;;;;;2.88;1.85;;;;;;;10.59;100.00;98729.28;6104612;19;20032;-75
2024/02/15 08:56:57;;;;;;;2.78;2.17;;;;;;;10.58;100.00;98726.88;6104948;19;20006;-75
2024/02/15 08:58:57;;;;;;;2.63;1.95;;;;;;;10.58;100.00;98733.19;6103215;19;20010;-75
2024/02/15 09:00:58;;;;;;;2.33;1.90;;;;;;;10.60;100.00;98730.06;6104585;19;20003;-75
2024/02/15 09:02:58;;;;;;;2.92;2.13;;;;;;;10.60;100.00;98730.88;6102180;19;20078;-75
2024/02/15 09:04:59;;;;;;;2.20;1.75;;;;;;;10.63;100.00;98732.09;6103966;19;20467;-75
2024/02/15 09:07:03;;;;;;;2.30;1.63;;;;;;;10.61;100.00;98726.94;6104716;19;20006;-75
2024/02/15 09:09:04;;;;;;;2.30;1.70;;;;;;;10.66;100.00;98725.81;6103034;19;20009;-75
2024/02/15 09:11:04;;;;;;;2.50;1.83;;;;;;;10.66;100.00;98734.91;6103929;19;19998;-75
2024/02/15 09:13:06;;;;;;;1.88;1.63;;;;;;;10.64;100.00;98731.72;6101284;19;20108;-75
2024/02/15 09:15:12;;;;;;;3.72;1.77;;;;;;;10.69;100.00;98733.38;6104893;19;20050;-75
2024/02/15 09:17:13;;;;;;;2.30;1.70;;;;;;;10.66;100.00;98726.59;6112562;19;20022;-75
2024/02/15 09:19:14;;;;;;;2.92;1.88;;;;;;;10.71;100.00;98733.78;6110683;19;20007;-75
2024/02/15 09:21:14;;;;;;;2.03;1.52;;;;;;;10.71;100.00;98736.56;6111311;19;20341;-75
2024/02/15 09:23:15;;;;;;;3.33;1.90;;;;;;;10.70;100.00;98729.44;6110784;19;20007;-75
2024/02/15 09:25:16;;;;;;;2.00;1.60;;;;;;;10.73;100.00;98739.75;6112377;19;20007;-75
2024/02/15 09:27:16;;;;;;;1.98;1.60;;;;;;;10.83;100.00;98743.84;6112013;19;20010;-75
2024/02/15 09:29:16;;;;;;;2.03;1.70;;;;;;;10.87;100.00;98739.16;6110506;19;20010;-75
2024/02/15 09:31:17;;;;;;;2.03;1.70;;;;;;;10.87;100.00;98745.50;6111363;19;20010;-75
2024/02/15 09:33:21;;;;;;;2.00;1.50;;;;;;;10.84;100.00;98737.13;6111673;19;20459;-75
2024/02/15 09:35:22;;;;;;;2.08;1.50;;;;;;;10.85;100.00;98741.53;6111455;19;19999;-75
2024/02/15 09:37:24;;;;;;;2.05;1.50;;;;;;;10.83;100.00;98732.75;6111515;19;20006;-75
2024/02/15 09:39:24;;;;;;;2.17;1.40;;;;;;;10.85;100.00;98735.97;6110833;19;20712;-75
2024/02/15 09:41:25;;;;;;;3.20;2.00;;;;;;;10.92;100.00;98727.75;6111621;19;20006;-75